Pella, IA (50219)

6:49 PM CDT on May 04, 2015 (GMT -0500)
BankerWeather | | Change Station
CLOSE
Current Station
Personal Weather Station
Location: Pella, IA
Elevation: 850 ft
Nearby Weather Stations

Elev 850 ft 41.42 °N, 92.92 °W | Updated 4 minutes ago

Mostly Cloudy
Mostly Cloudy
68.2 °F
Feels Like 68.2 °F
N
0.0
Wind Variable Wind from ESE

Today
High -- | Low -- °F
--% Chance of Precip.
Yesterday
High -- | Low -- °F
Precip. -- in
6:05 AM 8:12 PM
Full, 99% visible
Pressure 30.08 in
Visibility 7.0 miles
Clouds Scattered Clouds 2800 ft
Scattered Clouds 3600 ft
Scattered Clouds 9000 ft
Dew Point 61 °F
Humidity 79%
Rainfall 0.00 in
Snow Depth Not available.
UV 1 out of 12
Pollen 2.20 out of 12
Air Quality Not available.
Flu Activity Local Activity
METAR KPEA 042335Z AUTO 04003KT 7SM -DZ SCT028 SCT036 SCT090 20/18 A3008 RMK AO2 T02010181

More Conditions Fewer Conditions

Pressure 30.08 in
Visibility 7.0 miles
Clouds Scattered Clouds 2800 ft
Scattered Clouds 3600 ft
Scattered Clouds 9000 ft
Dew Point 61 °F
Humidity 79%
Rainfall 0.00 in
Snow Depth Not available.
UV 1 out of 12
Pollen 2.20 out of 12
Air Quality Not available.
Flu Activity Local Activity
METAR KPEA 042335Z AUTO 04003KT 7SM -DZ SCT028 SCT036 SCT090 20/18 A3008 RMK AO2 T02010181

More Conditions Fewer Conditions

Nepal has a long way to go to dig out and rebuild from a devastating earthquake. We have teamed up with several charities and organizations to make contributing to the relief effort as easy as possible.
How you can help: Portlight Strategies | Red Cross

10-Day Weather Forecast

Almanac

Astronomy

May. 04, 2015 Rise Set
Actual Time
Civil Twilight
Nautical Twilight
Astronomical Twilight
Moon
Length of Visible Light
Length of Day
Tomorrow will be .
, % of the Moon is Illuminated

Today's Extremes

State Highs State Lows

Community

WunderPhotos

Upload Photos

1,818,737 photos uploaded!

WunderBlogs® & News

Nearby

Air Quality

  Air Quality AQ Index Pollutant
Not available.

Snow Depth

Station Depth Elevation

Earthquake Activity

City Distance Mag. Time & Date
Minimum magnitude displayed is 2.5.

Coastal Water Temperatures

Place Temperature

Stations

Nearby Weather Stations

Station Location Temp. Windchill Dew Point Humidity Wind Precip. Elev Updated Type